createdAt,value
2022-12-03T00:00:13.427Z,99684.13
2022-12-03T00:00:25.617Z,99683.25
2022-12-03T00:00:37.728Z,99688.38
2022-12-03T00:00:49.673Z,99677.25
2022-12-03T00:01:01.782Z,99679.81
2022-12-03T00:01:14.237Z,99682.38
2022-12-03T00:01:26.562Z,99683.25
2022-12-03T00:01:38.506Z,99690.06
2022-12-03T00:01:50.646Z,99684.97
2022-12-03T00:02:02.603Z,99681.50
2022-12-03T00:02:15.087Z,99688.34
2022-12-03T00:02:27.223Z,99681.44
2022-12-03T00:02:39.743Z,99683.13
2022-12-03T00:02:51.987Z,99685.66
2022-12-03T00:03:04.571Z,99683.06
2022-12-03T00:03:17.373Z,99680.50
2022-12-03T00:03:30.495Z,99687.31
2022-12-03T00:03:43.377Z,99689.03
2022-12-03T00:03:55.943Z,99691.59
2022-12-03T00:04:08.211Z,99684.75
2022-12-03T00:04:20.175Z,99680.44
2022-12-03T00:04:32.119Z,99688.13
2022-12-03T00:04:44.045Z,99683.00
2022-12-03T00:04:56.135Z,99687.25
2022-12-03T00:05:08.578Z,99682.94
2022-12-03T00:05:20.913Z,99681.22
2022-12-03T00:05:32.881Z,99685.50
2022-12-03T00:05:48.832Z,99687.19
2022-12-03T00:06:01.513Z,99683.78
2022-12-03T00:06:13.408Z,99692.34
2022-12-03T00:06:28.981Z,99684.63
2022-12-03T00:06:43.483Z,99686.34
2022-12-03T00:06:55.419Z,99682.94
2022-12-03T00:07:07.458Z,99685.47
2022-12-03T00:07:19.373Z,99682.94
2022-12-03T00:07:31.323Z,99691.56
2022-12-03T00:07:43.374Z,99680.50
2022-12-03T00:07:55.560Z,99688.25
2022-12-03T00:08:07.609Z,99686.50
2022-12-03T00:08:19.857Z,99687.31
2022-12-03T00:08:31.746Z,99691.63
2022-12-03T00:08:43.732Z,99689.09
2022-12-03T00:08:55.784Z,99683.03
2022-12-03T00:09:07.935Z,99683.91
2022-12-03T00:09:19.830Z,99690.75
2022-12-03T00:09:31.749Z,99688.22
2022-12-03T00:09:43.711Z,99684.78
2022-12-03T00:09:55.597Z,99686.50
2022-12-03T00:10:08.514Z,99683.03
2022-12-03T00:10:20.451Z,99691.63
2022-12-03T00:10:32.519Z,99685.63
2022-12-03T00:10:44.485Z,99689.06
2022-12-03T00:10:56.916Z,99686.53
2022-12-03T00:11:08.860Z,99688.31
2022-12-03T00:11:21.129Z,99686.59
2022-12-03T00:11:33.367Z,99689.97
2022-12-03T00:11:45.857Z,99690.06
2022-12-03T00:11:57.781Z,99684.84
2022-12-03T00:12:09.885Z,99683.97
2022-12-03T00:12:21.869Z,99690.00
2022-12-03T00:12:34.234Z,99687.47
2022-12-03T00:12:46.470Z,99682.38
2022-12-03T00:12:58.906Z,99688.44
2022-12-03T00:13:10.777Z,99689.28
2022-12-03T00:13:22.778Z,99686.72
2022-12-03T00:13:34.784Z,99683.28
2022-12-03T00:13:46.885Z,99684.19
2022-12-03T00:13:58.841Z,99685.00
2022-12-03T00:14:10.845Z,99685.00
2022-12-03T00:14:22.746Z,99686.69
2022-12-03T00:14:36.135Z,99687.53
2022-12-03T00:14:50.218Z,99689.22
2022-12-03T00:15:02.335Z,99686.66
2022-12-03T00:15:14.683Z,99682.34
2022-12-03T00:15:26.690Z,99686.59
2022-12-03T00:15:38.923Z,99687.47
2022-12-03T00:15:51.278Z,99690.00
2022-12-03T00:16:03.783Z,99689.19
2022-12-03T00:16:15.768Z,99687.50
2022-12-03T00:16:28.324Z,99688.38
2022-12-03T00:16:40.444Z,99685.81
2022-12-03T00:16:52.394Z,99690.94
2022-12-03T00:17:04.301Z,99681.56
2022-12-03T00:17:16.602Z,99686.72
2022-12-03T00:17:28.795Z,99686.84
2022-12-03T00:17:40.727Z,99690.25
2022-12-03T00:17:52.750Z,99695.50
2022-12-03T00:18:04.983Z,99686.94
2022-12-03T00:18:16.903Z,99690.31
2022-12-03T00:18:29.397Z,99691.16
2022-12-03T00:18:41.289Z,99692.00
2022-12-03T00:18:53.353Z,99679.97
2022-12-03T00:19:07.587Z,99684.22
2022-12-03T00:19:19.527Z,99688.59
2022-12-03T00:19:31.467Z,99690.31
2022-12-03T00:19:43.539Z,99686.91
2022-12-03T00:19:55.495Z,99688.59
2022-12-03T00:20:08.748Z,99685.16
2022-12-03T00:20:23.414Z,99689.44
2022-12-03T00:20:35.344Z,99683.44
2022-12-03T00:20:47.341Z,99688.53
2022-12-03T00:20:59.291Z,99690.22
2022-12-03T00:21:11.285Z,99685.91
2022-12-03T00:21:24.773Z,99683.31
2022-12-03T00:21:37.099Z,99684.16
2022-12-03T00:21:49.092Z,99686.72
2022-12-03T00:22:01.060Z,99691.84
2022-12-03T00:22:13.029Z,99679.81
2022-12-03T00:22:24.940Z,99686.72
2022-12-03T00:22:36.882Z,99686.69
2022-12-03T00:22:49.216Z,99681.50
2022-12-03T00:23:01.225Z,99684.91
2022-12-03T00:23:13.190Z,99688.34
2022-12-03T00:23:25.285Z,99686.66
2022-12-03T00:23:41.815Z,99684.91
2022-12-03T00:23:54.443Z,99687.44
2022-12-03T00:24:06.969Z,99684.00
2022-12-03T00:24:18.866Z,99687.44
2022-12-03T00:24:31.358Z,99687.44
2022-12-03T00:24:43.271Z,99681.38
2022-12-03T00:24:55.770Z,99686.53
2022-12-03T00:25:08.477Z,99688.22
2022-12-03T00:25:20.413Z,99683.06
2022-12-03T00:25:32.409Z,99687.31
2022-12-03T00:25:44.360Z,99688.22
2022-12-03T00:25:56.602Z,99677.91
2022-12-03T00:26:08.512Z,99684.75
2022-12-03T00:26:20.819Z,99690.75
2022-12-03T00:26:32.784Z,99681.28
2022-12-03T00:26:44.811Z,99687.31
2022-12-03T00:26:56.746Z,99687.25
2022-12-03T00:27:08.672Z,99690.72
2022-12-03T00:27:20.626Z,99683.81
2022-12-03T00:27:32.719Z,99683.78
2022-12-03T00:27:44.926Z,99682.94
2022-12-03T00:27:56.879Z,99688.09
2022-12-03T00:28:08.835Z,99688.09
2022-12-03T00:28:20.784Z,99688.09
2022-12-03T00:28:32.786Z,99682.94
2022-12-03T00:28:44.685Z,99683.72
2022-12-03T00:28:57.625Z,99682.03
2022-12-03T00:29:09.534Z,99685.44
2022-12-03T00:29:21.467Z,99686.34
2022-12-03T00:29:33.358Z,99686.44
2022-12-03T00:29:45.714Z,99679.59
2022-12-03T00:29:57.678Z,99682.16
2022-12-03T00:30:11.028Z,99686.44
2022-12-03T00:30:22.945Z,99678.69
2022-12-03T00:30:35.330Z,99681.25
2022-12-03T00:30:47.274Z,99687.25
2022-12-03T00:30:59.637Z,99682.94
2022-12-03T00:31:11.676Z,99681.25
2022-12-03T00:31:24.989Z,99683.00
2022-12-03T00:31:37.097Z,99682.94
2022-12-03T00:31:49.131Z,99682.09
2022-12-03T00:32:01.083Z,99679.72
2022-12-03T00:32:14.184Z,99683.28
2022-12-03T00:32:26.104Z,99681.53
2022-12-03T00:32:38.093Z,99684.91
2022-12-03T00:32:50.088Z,99685.81
2022-12-03T00:33:02.486Z,99679.81
2022-12-03T00:33:14.447Z,99678.91
2022-12-03T00:33:26.498Z,99681.44
2022-12-03T00:33:38.448Z,99683.25
2022-12-03T00:33:52.343Z,99683.34
2022-12-03T00:34:04.273Z,99678.19
2022-12-03T00:34:16.392Z,99678.97
2022-12-03T00:34:28.331Z,99682.41
2022-12-03T00:34:40.284Z,99678.94
2022-12-03T00:34:52.482Z,99681.53
2022-12-03T00:35:04.998Z,99675.56
2022-12-03T00:35:16.980Z,99679.81
2022-12-03T00:35:28.900Z,99682.38
2022-12-03T00:35:41.012Z,99683.22
2022-12-03T00:35:52.978Z,99678.91
2022-12-03T00:36:05.356Z,99684.91
2022-12-03T00:36:17.422Z,99685.75
2022-12-03T00:36:29.404Z,99682.28
2022-12-03T00:36:41.407Z,99679.69
2022-12-03T00:36:53.312Z,99681.38
2022-12-03T00:37:05.415Z,99677.13
2022-12-03T00:37:17.363Z,99684.84
2022-12-03T00:37:29.506Z,99686.59
2022-12-03T00:37:41.411Z,99679.72
2022-12-03T00:37:53.865Z,99677.13
2022-12-03T00:38:05.883Z,99684.84
2022-12-03T00:38:18.400Z,99683.13
2022-12-03T00:38:30.322Z,99683.13
2022-12-03T00:38:42.268Z,99679.69
2022-12-03T00:38:54.215Z,99675.41
2022-12-03T00:39:06.155Z,99677.06
2022-12-03T00:39:18.055Z,99677.06
2022-12-03T00:39:30.527Z,99677.06
2022-12-03T00:39:42.402Z,99681.31
2022-12-03T00:39:54.617Z,99681.31
2022-12-03T00:40:07.237Z,99677.84
2022-12-03T00:40:19.483Z,99680.44
2022-12-03T00:40:31.468Z,99683.06
2022-12-03T00:40:43.590Z,99681.31
2022-12-03T00:40:55.555Z,99676.22
2022-12-03T00:41:07.537Z,99685.66
2022-12-03T00:41:19.473Z,99683.06
2022-12-03T00:41:31.441Z,99677.91
2022-12-03T00:41:43.363Z,99674.56
2022-12-03T00:41:55.306Z,99680.59
2022-12-03T00:42:07.259Z,99679.72
2022-12-03T00:42:19.175Z,99681.44
2022-12-03T00:42:31.319Z,99681.41
2022-12-03T00:42:43.263Z,99678.84
2022-12-03T00:42:55.532Z,99683.97
2022-12-03T00:43:07.670Z,99678.81
2022-12-03T00:43:19.815Z,99677.06
2022-12-03T00:43:31.772Z,99672.78
2022-12-03T00:43:43.912Z,99679.66
2022-12-03T00:43:57.592Z,99674.50
2022-12-03T00:44:10.316Z,99678.03
2022-12-03T00:44:22.268Z,99681.50
2022-12-03T00:44:34.403Z,99680.59
2022-12-03T00:44:46.299Z,99676.31
2022-12-03T00:44:58.804Z,99679.72
2022-12-03T00:45:11.114Z,99682.28
2022-12-03T00:45:23.461Z,99677.97
2022-12-03T00:45:35.401Z,99679.66
2022-12-03T00:45:47.481Z,99683.97
2022-12-03T00:45:59.456Z,99686.50
2022-12-03T00:46:13.883Z,99673.59
2022-12-03T00:46:27.970Z,99675.28
2022-12-03T00:46:40.065Z,99683.03
2022-12-03T00:46:52.094Z,99683.13
2022-12-03T00:47:04.292Z,99681.34
2022-12-03T00:47:16.361Z,99680.50
2022-12-03T00:47:28.756Z,99679.59
2022-12-03T00:47:40.708Z,99683.91
2022-12-03T00:47:52.663Z,99682.16
2022-12-03T00:48:05.023Z,99683.84
2022-12-03T00:48:17.111Z,99683.84
2022-12-03T00:48:29.094Z,99682.09
2022-12-03T00:48:41.021Z,99678.69
2022-12-03T00:48:53.448Z,99676.13
2022-12-03T00:49:05.398Z,99686.41
2022-12-03T00:49:17.436Z,99682.09
2022-12-03T00:49:29.498Z,99686.41
2022-12-03T00:49:41.468Z,99677.84
2022-12-03T00:49:53.506Z,99683.00
2022-12-03T00:50:06.374Z,99686.41
2022-12-03T00:50:18.329Z,99683.00
2022-12-03T00:50:30.332Z,99679.53
2022-12-03T00:50:42.319Z,99678.03
2022-12-03T00:50:54.487Z,99684.84
2022-12-03T00:51:06.551Z,99680.53
2022-12-03T00:51:19.419Z,99686.53
2022-12-03T00:51:31.390Z,99686.59
2022-12-03T00:51:43.357Z,99683.91
2022-12-03T00:51:55.317Z,99683.16
2022-12-03T00:52:07.318Z,99685.69
2022-12-03T00:52:19.682Z,99685.66
2022-12-03T00:52:31.696Z,99684.78
2022-12-03T00:52:43.698Z,99686.50
2022-12-03T00:52:55.911Z,99688.22
2022-12-03T00:53:08.001Z,99687.31
2022-12-03T00:53:19.916Z,99685.59
2022-12-03T00:53:31.823Z,99683.91
2022-12-03T00:53:43.781Z,99681.28
2022-12-03T00:53:56.116Z,99685.69
2022-12-03T00:54:08.422Z,99685.72
2022-12-03T00:54:20.388Z,99677.97
2022-12-03T00:54:32.468Z,99679.72
2022-12-03T00:54:45.333Z,99689.97
2022-12-03T00:54:57.394Z,99682.28
2022-12-03T00:55:09.630Z,99687.47
2022-12-03T00:55:22.139Z,99684.84
2022-12-03T00:55:34.028Z,99688.31
2022-12-03T00:55:46.034Z,99685.72
2022-12-03T00:55:58.034Z,99689.16
2022-12-03T00:56:09.979Z,99686.53
2022-12-03T00:56:21.971Z,99690.84
2022-12-03T00:56:33.981Z,99688.25
2022-12-03T00:56:46.028Z,99682.22
2022-12-03T00:56:57.974Z,99689.06
2022-12-03T00:57:10.262Z,99680.66
2022-12-03T00:57:22.197Z,99686.66
2022-12-03T00:57:34.353Z,99681.50
2022-12-03T00:57:47.002Z,99684.91
2022-12-03T00:57:59.592Z,99691.78
2022-12-03T00:58:11.565Z,99682.31
2022-12-03T00:58:23.775Z,99678.03
2022-12-03T00:58:36.148Z,99684.84
2022-12-03T00:58:48.486Z,99684.81
2022-12-03T00:59:00.447Z,99686.53
2022-12-03T00:59:12.982Z,99678.81
2022-12-03T00:59:25.075Z,99680.50
2022-12-03T00:59:37.483Z,99681.34
2022-12-03T00:59:49.558Z,99684.75
2022-12-03T01:00:01.611Z,99682.16
2022-12-03T01:00:14.500Z,99685.56
2022-12-03T01:00:26.450Z,99685.59
2022-12-03T01:00:38.378Z,99677.06
2022-12-03T01:00:50.517Z,99681.38
2022-12-03T01:01:02.835Z,99687.44
2022-12-03T01:01:14.830Z,99682.22
2022-12-03T01:01:26.822Z,99682.28
2022-12-03T01:01:38.846Z,99686.63
2022-12-03T01:01:51.030Z,99683.22
2022-12-03T01:02:03.064Z,99687.59
2022-12-03T01:02:15.223Z,99683.31
2022-12-03T01:02:27.334Z,99684.16
2022-12-03T01:02:39.374Z,99685.06
2022-12-03T01:02:52.510Z,99681.59
2022-12-03T01:03:04.543Z,99685.00
2022-12-03T01:03:16.549Z,99681.56
2022-12-03T01:03:28.683Z,99688.44
2022-12-03T01:03:40.815Z,99681.56
2022-12-03T01:03:52.703Z,99680.69
2022-12-03T01:04:05.243Z,99681.53
2022-12-03T01:04:17.326Z,99685.78
2022-12-03T01:04:29.852Z,99684.97
2022-12-03T01:04:41.880Z,99681.56
2022-12-03T01:04:54.310Z,99682.38
2022-12-03T01:05:06.797Z,99684.97
2022-12-03T01:05:20.248Z,99689.22
2022-12-03T01:05:32.231Z,99688.34
2022-12-03T01:05:44.189Z,99686.59
2022-12-03T01:05:56.171Z,99684.88
2022-12-03T01:06:08.249Z,99681.44
2022-12-03T01:06:20.162Z,99681.44
2022-12-03T01:06:32.451Z,99682.38
2022-12-03T01:06:44.395Z,99684.91
2022-12-03T01:06:56.521Z,99683.19
2022-12-03T01:07:08.593Z,99684.97
2022-12-03T01:07:21.191Z,99684.06
2022-12-03T01:07:33.225Z,99686.66
2022-12-03T01:07:46.417Z,99686.66
2022-12-03T01:07:58.786Z,99679.75
2022-12-03T01:08:11.431Z,99691.75
2022-12-03T01:08:24.151Z,99684.84
2022-12-03T01:08:36.199Z,99688.34
2022-12-03T01:08:48.421Z,99684.09
2022-12-03T01:09:00.379Z,99684.06
2022-12-03T01:09:12.469Z,99676.34
2022-12-03T01:09:24.393Z,99687.47
2022-12-03T01:09:36.638Z,99684.91
2022-12-03T01:09:48.606Z,99683.16
2022-12-03T01:10:01.318Z,99682.31
2022-12-03T01:10:13.798Z,99684.88
2022-12-03T01:10:26.107Z,99679.75
2022-12-03T01:10:38.070Z,99687.59
2022-12-03T01:10:50.034Z,99683.44
2022-12-03T01:11:02.010Z,99692.03
2022-12-03T01:11:32.767Z,99688.59
2022-12-03T01:11:45.088Z,99690.22
2022-12-03T01:11:57.381Z,99685.00
2022-12-03T01:12:09.392Z,99683.28
2022-12-03T01:12:21.729Z,99688.38
2022-12-03T01:12:33.683Z,99681.56
2022-12-03T01:12:45.616Z,99684.97
2022-12-03T01:12:57.726Z,99678.09
2022-12-03T01:13:09.984Z,99683.34
2022-12-03T01:13:22.075Z,99685.06
2022-12-03T01:13:33.959Z,99687.63
2022-12-03T01:13:45.890Z,99676.47
2022-12-03T01:13:58.230Z,99683.31
2022-12-03T01:14:20.228Z,99678.97
2022-12-03T01:14:32.294Z,99684.97
2022-12-03T01:14:45.051Z,99690.06
2022-12-03T01:14:57.021Z,99684.06
2022-12-03T01:15:10.215Z,99679.75
2022-12-03T01:15:22.121Z,99688.28
2022-12-03T01:15:34.464Z,99681.41
2022-12-03T01:15:46.600Z,99682.22
2022-12-03T01:15:58.912Z,99684.84
2022-12-03T01:16:10.921Z,99683.13
2022-12-03T01:16:23.022Z,99684.84
2022-12-03T01:16:35.883Z,99686.59
2022-12-03T01:16:48.513Z,99683.97
2022-12-03T01:17:00.546Z,99691.91
2022-12-03T01:17:12.937Z,99681.50
2022-12-03T01:17:24.938Z,99681.50
2022-12-03T01:17:37.696Z,99681.50
2022-12-03T01:17:49.706Z,99679.88
2022-12-03T01:18:01.770Z,99683.44
2022-12-03T01:18:13.725Z,99679.06
2022-12-03T01:18:26.132Z,99685.03
2022-12-03T01:18:38.198Z,99679.88
2022-12-03T01:18:52.428Z,99685.00
2022-12-03T01:19:05.854Z,99681.56
2022-12-03T01:19:19.084Z,99678.09
2022-12-03T01:19:31.082Z,99681.56
2022-12-03T01:19:48.092Z,99680.66
2022-12-03T01:20:01.786Z,99681.50
2022-12-03T01:20:13.780Z,99678.97
2022-12-03T01:20:26.045Z,99692.00
2022-12-03T01:20:38.595Z,99686.78
2022-12-03T01:20:50.827Z,99683.34
2022-12-03T01:21:02.833Z,99681.66
2022-12-03T01:21:14.748Z,99679.06
2022-12-03T01:21:26.702Z,99684.31
2022-12-03T01:21:38.578Z,99685.13
2022-12-03T01:21:51.584Z,99679.97
2022-12-03T01:22:03.635Z,99676.50
2022-12-03T01:22:15.610Z,99688.59
2022-12-03T01:22:28.224Z,99681.72
2022-12-03T01:22:40.474Z,99687.69
2022-12-03T01:22:52.504Z,99681.66
2022-12-03T01:23:04.839Z,99684.22
2022-12-03T01:23:16.775Z,99685.88
2022-12-03T01:23:28.864Z,99679.88
2022-12-03T01:23:40.766Z,99682.59
2022-12-03T01:23:53.154Z,99686.91
2022-12-03T01:24:05.470Z,99684.41
2022-12-03T01:24:19.019Z,99681.84
2022-12-03T01:24:31.400Z,99684.38
2022-12-03T01:24:43.443Z,99687.91
2022-12-03T01:24:55.615Z,99686.97
2022-12-03T01:25:08.235Z,99689.69
2022-12-03T01:25:20.185Z,99682.81
2022-12-03T01:25:32.194Z,99695.63
2022-12-03T01:25:44.319Z,99688.72
2022-12-03T01:25:56.197Z,99682.69
2022-12-03T01:26:08.627Z,99688.63
2022-12-03T01:26:20.688Z,99693.78
2022-12-03T01:26:32.857Z,99686.91
2022-12-03T01:26:44.841Z,99692.03
2022-12-03T01:26:57.857Z,99686.84
2022-12-03T01:27:09.822Z,99687.69
2022-12-03T01:27:21.857Z,99693.69
2022-12-03T01:27:33.806Z,99680.78
2022-12-03T01:27:46.165Z,99692.78
2022-12-03T01:27:58.165Z,99687.63
2022-12-03T01:28:10.412Z,99688.47
2022-12-03T01:28:22.347Z,99687.59
2022-12-03T01:28:34.479Z,99693.56
2022-12-03T01:28:46.478Z,99689.22
2022-12-03T01:28:58.416Z,99687.53
2022-12-03T01:29:10.587Z,99690.13
2022-12-03T01:29:22.527Z,99693.59
2022-12-03T01:29:34.532Z,99691.00
2022-12-03T01:29:46.485Z,99682.41
2022-12-03T01:29:58.688Z,99688.38
2022-12-03T01:30:12.347Z,99686.66
2022-12-03T01:30:24.333Z,99684.97
2022-12-03T01:30:56.277Z,99690.22
2022-12-03T01:31:27.735Z,99684.97
2022-12-03T01:31:58.086Z,99691.81
2022-12-03T01:32:16.698Z,99688.34
2022-12-03T01:32:28.650Z,99692.66
2022-12-03T01:32:40.727Z,99687.50
2022-12-03T01:32:52.733Z,99691.78
2022-12-03T01:33:04.642Z,99684.91
2022-12-03T01:33:16.559Z,99688.38
2022-12-03T01:33:28.650Z,99689.19
2022-12-03T01:33:40.565Z,99686.59
2022-12-03T01:33:52.668Z,99688.34
2022-12-03T01:34:05.181Z,99686.63
2022-12-03T01:34:17.487Z,99686.59
2022-12-03T01:34:29.465Z,99692.59
2022-12-03T01:34:41.515Z,99696.00
2022-12-03T01:34:55.524Z,99690.00
2022-12-03T01:35:08.201Z,99698.56
2022-12-03T01:35:20.208Z,99699.41
2022-12-03T01:35:32.102Z,99689.97
2022-12-03T01:35:43.973Z,99691.63
2022-12-03T01:35:55.908Z,99693.38
2022-12-03T01:36:08.215Z,99690.78
2022-12-03T01:36:20.219Z,99689.91
2022-12-03T01:36:34.254Z,99687.31
2022-12-03T01:36:46.241Z,99687.38
2022-12-03T01:36:58.184Z,99694.22
2022-12-03T01:37:10.511Z,99686.47
2022-12-03T01:37:25.390Z,99689.88
2022-12-03T01:37:37.349Z,99688.22
2022-12-03T01:37:49.496Z,99691.75
2022-12-03T01:38:01.390Z,99696.84
2022-12-03T01:38:13.370Z,99694.28
2022-12-03T01:38:25.365Z,99695.13
2022-12-03T01:38:37.298Z,99691.69
2022-12-03T01:38:49.414Z,99694.25
2022-12-03T01:39:02.316Z,99696.00
2022-12-03T01:39:14.310Z,99691.75
2022-12-03T01:39:26.279Z,99691.75
2022-12-03T01:39:38.235Z,99688.28
2022-12-03T01:39:50.235Z,99695.16
2022-12-03T01:40:02.203Z,99686.59
2022-12-03T01:40:19.571Z,99690.84
2022-12-03T01:40:31.719Z,99690.84
2022-12-03T01:40:43.705Z,99696.00
2022-12-03T01:40:55.923Z,99690.84
2022-12-03T01:41:11.719Z,99691.69
2022-12-03T01:41:24.973Z,99689.97
2022-12-03T01:41:37.165Z,99692.53
2022-12-03T01:41:51.605Z,99692.53
2022-12-03T01:42:04.720Z,99695.94
2022-12-03T01:42:23.022Z,99693.38
2022-12-03T01:42:39.323Z,99695.16
2022-12-03T01:42:51.285Z,99698.63
2022-12-03T01:43:03.310Z,99693.47
2022-12-03T01:43:15.265Z,99691.75
2022-12-03T01:43:27.178Z,99692.59
2022-12-03T01:43:39.136Z,99693.44
2022-12-03T01:43:51.780Z,99691.69
2022-12-03T01:44:12.845Z,99696.09
2022-12-03T01:44:30.026Z,99699.72
2022-12-03T01:44:42.299Z,99695.38
2022-12-03T01:44:56.953Z,99693.63
2022-12-03T01:45:21.186Z,99700.56
2022-12-03T01:45:33.498Z,99695.38
2022-12-03T01:45:45.677Z,99698.81
2022-12-03T01:45:57.652Z,99700.50
2022-12-03T01:46:13.665Z,99691.00
2022-12-03T01:46:34.946Z,99690.16
2022-12-03T01:46:47.901Z,99697.00
2022-12-03T01:47:03.633Z,99697.00
2022-12-03T01:47:19.467Z,99698.69
2022-12-03T01:47:34.269Z,99698.63
2022-12-03T01:47:46.184Z,99696.06
2022-12-03T01:47:58.157Z,99694.31
2022-12-03T01:48:16.535Z,99695.16
2022-12-03T01:48:34.124Z,99697.69
2022-12-03T01:48:47.991Z,99693.38
2022-12-03T01:49:00.185Z,99700.25
2022-12-03T01:49:17.225Z,99699.38
2022-12-03T01:49:36.401Z,99696.84
2022-12-03T01:49:53.075Z,99693.38
2022-12-03T01:50:17.815Z,99702.78
2022-12-03T01:50:33.918Z,99695.91
2022-12-03T01:50:46.278Z,99695.06
2022-12-03T01:50:58.311Z,99695.06
2022-12-03T01:51:10.501Z,99692.59
2022-12-03T01:51:22.721Z,99697.75
2022-12-03T01:51:34.702Z,99695.16
2022-12-03T01:51:48.412Z,99698.56
2022-12-03T01:52:00.617Z,99698.59
2022-12-03T01:52:15.295Z,99693.44
2022-12-03T01:52:31.323Z,99697.72
2022-12-03T01:52:44.432Z,99700.31
2022-12-03T01:53:00.496Z,99693.44
2022-12-03T01:53:16.097Z,99693.44
2022-12-03T01:53:28.070Z,99699.41
2022-12-03T01:53:40.510Z,99693.38
2022-12-03T01:53:52.442Z,99695.09
2022-12-03T01:54:04.714Z,99693.38
2022-12-03T01:54:27.029Z,99692.56
2022-12-03T01:54:42.201Z,99695.09
2022-12-03T01:54:57.954Z,99699.38
2022-12-03T01:55:16.535Z,99696.78
2022-12-03T01:55:29.190Z,99691.69
2022-12-03T01:55:48.327Z,99699.41
2022-12-03T01:56:00.871Z,99701.94
2022-12-03T01:56:15.446Z,99694.25
2022-12-03T01:56:28.029Z,99692.59
2022-12-03T01:56:40.429Z,99691.69
2022-12-03T01:56:54.274Z,99698.53
2022-12-03T01:57:17.907Z,99695.25
2022-12-03T01:57:42.078Z,99700.41
2022-12-03T01:57:57.177Z,99696.94
2022-12-03T01:58:13.843Z,99698.66
2022-12-03T01:58:28.631Z,99697.03
2022-12-03T01:58:41.887Z,99695.31
2022-12-03T01:58:53.832Z,99689.31
2022-12-03T01:59:05.798Z,99701.44
2022-12-03T01:59:19.772Z,99703.97
2022-12-03T01:59:38.532Z,99698.88
2022-12-03T01:59:52.217Z,99698.88
2022-12-03T02:00:04.621Z,99704.03
2022-12-03T02:00:19.982Z,99707.44
2022-12-03T02:00:32.058Z,99704.81
2022-12-03T02:00:44.060Z,99703.97
2022-12-03T02:00:58.990Z,99705.66
2022-12-03T02:01:16.621Z,99695.31
2022-12-03T02:01:28.693Z,99697.00
2022-12-03T02:01:40.956Z,99692.75
2022-12-03T02:01:52.937Z,99697.00
2022-12-03T02:02:14.227Z,99698.69
2022-12-03T02:02:31.106Z,99696.06
2022-12-03T02:02:43.349Z,99702.19
2022-12-03T02:03:02.188Z,99698.81
2022-12-03T02:03:20.943Z,99703.94
2022-12-03T02:03:33.027Z,99704.88
2022-12-03T02:03:46.118Z,99699.72
2022-12-03T02:03:58.442Z,99704.81
2022-12-03T02:04:16.608Z,99703.13
2022-12-03T02:04:29.828Z,99698.88
2022-12-03T02:04:41.862Z,99700.56
2022-12-03T02:04:55.042Z,99702.25
2022-12-03T02:05:16.731Z,99700.56
2022-12-03T02:05:31.193Z,99701.34
2022-12-03T02:05:43.323Z,99697.88
2022-12-03T02:05:56.821Z,99693.59
2022-12-03T02:06:17.050Z,99696.25
2022-12-03T02:06:30.038Z,99703.97
2022-12-03T02:06:44.716Z,99698.78
2022-12-03T02:06:57.426Z,99703.94
2022-12-03T02:07:18.316Z,99697.00
2022-12-03T02:07:32.770Z,99696.09
2022-12-03T02:07:45.252Z,99696.94
2022-12-03T02:07:58.270Z,99695.22
2022-12-03T02:08:29.681Z,99696.94
2022-12-03T02:08:41.752Z,99695.25
2022-12-03T02:08:59.495Z,99700.38
2022-12-03T02:09:12.982Z,99697.00
2022-12-03T02:09:24.905Z,99694.41
2022-12-03T02:09:36.842Z,99696.13
2022-12-03T02:09:49.071Z,99698.72
2022-12-03T02:10:03.261Z,99692.69
2022-12-03T02:10:17.364Z,99696.13
2022-12-03T02:10:35.748Z,99695.28
2022-12-03T02:10:47.808Z,99697.84
2022-12-03T02:11:05.246Z,99695.31
2022-12-03T02:11:29.878Z,99689.31
2022-12-03T02:11:49.314Z,99703.03
2022-12-03T02:12:01.203Z,99700.50
2022-12-03T02:12:16.046Z,99696.16
2022-12-03T02:12:33.656Z,99696.13
2022-12-03T02:12:54.568Z,99696.09
2022-12-03T02:13:09.355Z,99696.09
2022-12-03T02:13:21.710Z,99694.38
2022-12-03T02:13:33.759Z,99694.38
2022-12-03T02:13:47.796Z,99694.31
2022-12-03T02:14:04.211Z,99702.03
2022-12-03T02:14:20.129Z,99694.31
2022-12-03T02:14:32.509Z,99694.31
2022-12-03T02:14:44.557Z,99695.25
2022-12-03T02:14:57.467Z,99701.22
2022-12-03T02:15:10.960Z,99702.06
2022-12-03T02:15:23.546Z,99698.63
2022-12-03T02:15:38.444Z,99697.72
2022-12-03T02:15:50.472Z,99700.31
2022-12-03T02:16:03.817Z,99702.94
2022-12-03T02:16:16.020Z,99702.03
2022-12-03T02:16:29.129Z,99695.16
2022-12-03T02:16:42.207Z,99700.53
2022-12-03T02:16:54.299Z,99697.91
2022-12-03T02:17:06.600Z,99697.00
2022-12-03T02:17:18.742Z,99694.38
2022-12-03T02:17:31.003Z,99698.69
2022-12-03T02:17:43.258Z,99695.22
2022-12-03T02:17:55.557Z,99696.88
2022-12-03T02:18:08.975Z,99700.31
2022-12-03T02:18:21.247Z,99697.88
2022-12-03T02:18:33.863Z,99695.31
2022-12-03T02:18:45.979Z,99694.53
2022-12-03T02:18:58.610Z,99698.00
2022-12-03T02:19:20.920Z,99701.41
2022-12-03T02:19:33.233Z,99691.91
2022-12-03T02:19:46.001Z,99700.47
2022-12-03T02:19:59.111Z,99695.28
2022-12-03T02:20:12.044Z,99697.84
2022-12-03T02:20:24.213Z,99693.53
2022-12-03T02:20:46.863Z,99692.66
2022-12-03T02:21:33.928Z,99698.63
2022-12-03T02:22:17.955Z,99692.59
2022-12-03T02:22:34.886Z,99695.25
2022-12-03T02:23:13.862Z,99695.31
2022-12-03T02:23:40.755Z,99695.31
2022-12-03T02:24:21.998Z,99698.97
2022-12-03T02:24:53.102Z,99694.63
2022-12-03T02:25:32.550Z,99699.00
2022-12-03T02:25:44.489Z,99698.16
2022-12-03T02:25:56.517Z,99696.47
2022-12-03T02:26:08.821Z,99704.19
2022-12-03T02:26:21.189Z,99695.63
2022-12-03T02:26:33.362Z,99696.47
2022-12-03T02:26:45.558Z,99700.78
2022-12-03T02:26:57.496Z,99695.63
2022-12-03T02:27:09.473Z,99696.47
2022-12-03T02:27:22.166Z,99700.78
2022-12-03T02:27:34.161Z,99695.59
2022-12-03T02:27:47.833Z,99697.31
2022-12-03T02:28:00.614Z,99698.97
2022-12-03T02:28:12.856Z,99699.88
2022-12-03T02:28:24.957Z,99697.34
2022-12-03T02:28:38.196Z,99693.94
2022-12-03T02:28:50.267Z,99698.25
2022-12-03T02:29:02.607Z,99697.34
2022-12-03T02:29:14.587Z,99699.88
2022-12-03T02:29:26.683Z,99694.69
2022-12-03T02:29:38.775Z,99697.25
2022-12-03T02:29:51.316Z,99705.81
2022-12-03T02:30:05.531Z,99701.50
2022-12-03T02:30:21.754Z,99698.88
2022-12-03T02:30:33.976Z,99697.16
2022-12-03T02:30:45.915Z,99698.03
2022-12-03T02:30:58.173Z,99697.28
2022-12-03T02:31:10.398Z,99691.25
2022-12-03T02:31:23.691Z,99693.78
2022-12-03T02:31:36.025Z,99698.97
2022-12-03T02:31:48.426Z,99699.78
2022-12-03T02:32:00.649Z,99693.78
2022-12-03T02:32:12.683Z,99695.47
2022-12-03T02:32:24.656Z,99690.31
2022-12-03T02:32:37.476Z,99705.75
2022-12-03T02:32:52.166Z,99697.09
2022-12-03T02:33:04.243Z,99694.56
2022-12-03T02:33:16.729Z,99703.31
2022-12-03T02:33:28.648Z,99694.66
2022-12-03T02:33:40.826Z,99695.50
2022-12-03T02:33:52.826Z,99700.63
2022-12-03T02:34:08.871Z,99699.81
2022-12-03T02:34:53.228Z,99692.88
2022-12-03T02:35:06.293Z,99693.72
2022-12-03T02:35:23.806Z,99692.09
2022-12-03T02:35:37.170Z,99694.63
2022-12-03T02:35:49.457Z,99694.63
2022-12-03T02:36:03.941Z,99696.34
2022-12-03T02:36:16.888Z,99697.19
2022-12-03T02:36:28.891Z,99691.16